Latest Weather Observations for Tasman Island

IDT60801

Issued at 12:05 pm EST Tuesday 2 September 2014 (issued every 30 minutes, with the page automatically refreshed every 10 minutes)

About weather observations | Map of weather stations | Latest weather observations for TAS | Other Formats
Station Details ID: 094155 Name: TASMAN ISLAND Lat: -43.24 Lon: 148.00 Height: 240.0 m
Data from the previous 72 hours. | See also: Recent months at Tasman Island
Date/Time
EST
Temp
°C
App
Temp
°C
Dew
Point
Rel
Hum
%
Delta-T
°C
Wind Press
QNH
hPa
Press
MSL
hPa
Rain
since 9 am
mm
Dir
 
Spd
km/h
Gust
km/h
Spd
kts
Gust
kts
02/12:00pm 5.9 -4.2 3.7 86 0.9 SW 46 70 25 38 1016.5 1016.8 0.2
02/11:50am 8.1 0.5 3.9 75 1.8 SW 33 67 18 36 1016.3 1016.6 0.0
02/11:32am 8.3 1.4 2.8 68 2.4 SSW 28 48 15 26 1016.3 1016.6 0.0
02/11:30am 8.5 1.8 1.6 62 2.9 SW 26 48 14 26 1016.4 1016.7 0.0
02/11:00am 8.8 1.9 2.6 65 2.7 SW 28 63 15 34 1016.4 1016.7 0.0
02/10:57am 8.3 1.3 2.1 65 2.6 SW 28 63 15 34 1016.4 1016.7 0.0
02/10:30am 8.2 2.2 3.1 70 2.2 SW 24 50 13 27 1016.3 1016.6 0.0
02/10:01am 9.1 2.0 1.5 59 3.2 SW 28 46 15 25 1016.3 1016.6 0.0
02/10:00am 9.1 2.3 1.0 57 3.3 SW 26 46 14 25 1016.3 1016.6 0.0
02/09:38am 8.5 0.7 1.6 62 2.9 SSW 32 52 17 28 1016.0 1016.3 0.0
02/09:30am 8.7 0.3 1.4 60 3.0 SW 35 50 19 27 1015.9 1016.2 0.0
02/09:00am 8.1 0.6 1.0 61 2.9 SW 30 50 16 27 1015.8 1016.0 7.2
02/08:30am 8.1 -0.1 0.6 59 3.0 SSW 33 56 18 30 1015.8 1016.0 7.2
02/08:24am 8.2 0.7 0.9 60 3.0 SSW 30 50 16 27 1015.8 1016.0 7.2
02/08:00am 8.2 1.5 1.6 63 2.7 SSW 26 41 14 22 1015.8 1016.0 7.2
02/07:30am 7.4 0.2 0.6 62 2.7 SSW 28 50 15 27 1015.4 1015.6 7.2
02/07:19am 7.6 0.5 1.5 65 2.5 SSW 28 48 15 26 1015.3 1015.5 7.2
02/07:00am 7.3 0.9 0.7 63 2.7 SSW 24 39 13 21 1015.2 1015.4 7.2
02/06:30am 7.4 1.0 0.8 63 2.7 SSW 24 37 13 20 1014.9 1015.1 7.2
02/06:00am 7.4 1.0 0.8 63 2.7 SSW 24 39 13 21 1014.5 1014.7 7.2
02/05:30am 7.5 0.0 0.9 63 2.7 SSW 30 44 16 24 1013.8 1014.1 7.2
02/05:12am 7.4 0.2 0.6 62 2.7 SSW 28 48 15 26 1013.6 1013.9 7.2
02/05:00am 7.6 0.9 1.5 65 2.5 SSW 26 43 14 23 1013.4 1013.7 7.2
02/04:30am 7.2 0.7 0.6 63 2.7 SSW 24 39 13 21 1013.0 1013.3 7.2
02/04:00am 7.4 -0.2 0.4 61 2.8 SSW 30 44 16 24 1012.6 1012.9 7.2
02/03:33am 7.8 1.0 3.1 72 2.0 SSW 28 46 15 25 1012.4 1012.7 7.2
02/03:30am 7.8 1.8 3.3 73 1.9 SSW 24 37 13 20 1012.4 1012.7 7.2
02/03:00am 7.3 0.9 1.2 65 2.5 SSW 24 37 13 20 1012.4 1012.7 7.2
02/02:30am 7.5 1.8 2.6 71 2.1 SSW 22 37 12 20 1012.1 1012.3 7.2
02/02:00am 7.9 1.3 4.1 77 1.7 SSW 28 43 15 23 1011.9 1012.1 7.2
02/01:30am 7.6 1.9 2.7 71 2.1 S 22 33 12 18 1011.8 1012.0 7.2
02/01:00am 7.8 2.9 4.0 77 1.7 S 19 35 10 19 1011.5 1011.7 7.2
02/12:30am 7.5 1.4 3.0 73 1.9 S 24 39 13 21 1011.2 1011.4 7.2
02/12:00am 7.6 1.7 3.8 77 1.7 S 24 35 13 19 1010.9 1011.1 7.2
 
Date/Time
EST
Temp
°C
App
Temp
°C
Dew
Point
Rel
Hum
%
Delta-T
°C
Wind Press
QNH
hPa
Press
MSL
hPa
Rain
since 9 am
mm
Dir
 
Spd
km/h
Gust
km/h
Spd
kts
Gust
kts
01/11:30pm 7.4 2.2 5.7 89 0.8 SSW 22 33 12 18 1010.7 1010.9 7.2
01/11:00pm 7.2 1.2 5.2 87 0.9 SSW 26 37 14 20 1010.3 1010.5 7.2
01/10:30pm 6.6 0.4 4.1 84 1.1 S 26 46 14 25 1010.1 1010.3 7.2
01/10:00pm 7.7 2.3 4.7 81 1.3 S 22 33 12 18 1009.7 1010.0 6.8
01/09:30pm 7.9 2.9 4.8 81 1.4 S 20 37 11 20 1009.3 1009.6 6.8
01/09:00pm 7.6 1.0 4.4 80 1.4 S 28 44 15 24 1008.7 1008.9 6.8
01/08:41pm 7.8 1.2 4.2 78 1.6 S 28 46 15 25 1008.3 1008.5 6.8
01/08:30pm 7.6 1.1 4.7 82 1.3 S 28 43 15 23 1008.2 1008.4 6.8
01/08:16pm 7.2 1.0 6.0 92 0.5 S 28 56 15 30 1007.9 1008.1 6.8
01/08:00pm 7.1 1.3 6.4 95 0.3 S 26 43 14 23 1007.6 1007.8 6.8
01/07:30pm 7.5 0.8 7.4 99 0.0 SSW 32 50 17 27 1007.2 1007.4 6.8
01/07:00pm 7.3 1.0 7.2 99 0.0 SSW 30 44 16 24 1006.6 1006.8 6.6
01/06:30pm 7.5 1.6 7.4 99 0.0 SSW 28 46 15 25 1006.0 1006.2 6.4
01/06:00pm 7.3 1.3 7.2 99 0.0 S 28 48 15 26 1005.5 1005.8 6.2
01/05:30pm 7.4 1.1 7.4 100 0.0 S 30 54 16 29 1004.5 1004.7 6.2
01/05:00pm 7.6 1.3 7.6 100 0.0 S 30 48 16 26 1003.8 1004.0 5.6
01/04:30pm 7.5 0.8 7.5 100 0.0 S 32 52 17 28 1003.1 1003.3 5.2
01/04:17pm 7.8 1.2 7.8 100 0.0 S 32 50 17 27 1002.9 1003.1 5.0
01/04:00pm 8.1 1.0 8.1 100 0.0 SSW 35 54 19 29 1002.6 1002.8 4.8
01/03:30pm 8.5 0.8 8.5 100 0.0 SSW 39 63 21 34 1002.0 1002.2 4.0
01/03:00pm 8.7 2.1 8.7 100 0.0 SSW 33 54 18 29 1001.9 1002.1 3.8
01/02:30pm 8.8 2.8 8.8 100 0.0 SSW 30 54 16 29 1001.7 1001.8 3.4
01/02:00pm 9.0 2.5 8.9 99 0.0 SSW 33 70 18 38 1000.5 1000.7 2.4
01/01:50pm 9.6 3.4 9.5 99 0.1 SSW 32 50 17 27 1000.6 1000.8 2.2
01/01:30pm 10.6 8.7 9.2 91 0.7 SSW 9 30 5 16 1000.7 1000.9 1.6
01/01:00pm 13.7 7.5 7.7 67 3.0 NNW 30 54 16 29 1000.5 1000.7 0.0
01/12:30pm 13.9 6.6 7.4 65 3.2 N 35 54 19 29 1000.8 1001.0 0.0
01/12:00pm 13.9 7.6 7.2 64 3.3 N 30 59 16 32 1001.2 1001.4 0.0
01/11:30am 13.1 6.9 8.0 71 2.6 N 30 50 16 27 1001.8 1001.9 0.0
01/11:00am 13.3 7.1 7.7 69 2.8 N 30 54 16 29 1002.1 1002.3 0.0
01/10:36am 13.2 7.3 7.6 69 2.8 N 28 48 15 26 1002.4 1002.6 0.0
01/10:30am 13.2 8.0 7.4 68 2.9 N 24 46 13 25 1002.4 1002.6 0.0
01/10:15am 12.9 7.1 7.8 71 2.5 NNW 28 48 15 26 1002.6 1002.8 0.0
01/10:00am 12.9 8.8 7.8 71 2.5 N 19 35 10 19 1002.8 1003.0 0.0
01/09:30am 12.9 5.7 7.8 71 2.5 N 35 56 19 30 1003.4 1003.7 0.0
01/09:20am 13.0 6.3 7.5 69 2.7 N 32 52 17 28 1003.5 1003.8 0.0
01/09:00am 12.8 5.7 7.9 72 2.5 N 35 50 19 27 1003.8 1004.1 0.0
01/08:30am 12.5 5.0 8.0 74 2.2 N 37 52 20 28 1004.1 1004.4 0.0
01/08:05am 12.4 6.2 7.7 73 2.3 N 30 50 16 27 1004.1 1004.4 0.0
01/08:00am 12.5 6.3 7.8 73 2.3 N 30 43 16 23 1004.2 1004.5 0.0
01/07:47am 12.6 5.8 7.5 71 2.5 N 33 52 18 28 1004.2 1004.5 0.0
01/07:30am 12.6 5.8 7.7 72 2.4 N 33 46 18 25 1004.3 1004.6 0.0
01/07:14am 12.6 6.3 7.5 71 2.5 N 30 48 16 26 1004.5 1004.8 0.0
01/07:00am 12.7 5.5 7.6 71 2.5 N 35 50 19 27 1004.5 1004.8 0.0
01/06:30am 12.5 4.9 7.4 71 2.5 N 37 48 20 26 1004.5 1004.8 0.0
01/06:00am 12.6 4.2 7.3 70 2.6 N 41 54 22 29 1004.5 1004.8 0.0
01/05:30am 12.6 5.0 7.5 71 2.5 N 37 50 20 27 1004.9 1005.2 0.0
01/05:21am 12.8 5.1 7.3 69 2.7 N 37 57 20 31 1004.9 1005.2 0.0
01/05:00am 12.8 3.9 7.0 68 2.8 N 43 54 23 29 1004.8 1005.1 0.0
01/04:30am 12.9 4.4 7.1 68 2.8 N 41 56 22 30 1004.9 1005.2 0.0
01/04:00am 12.8 6.1 7.3 69 2.7 N 32 52 17 28 1005.3 1005.6 0.0
01/03:46am 13.1 5.4 7.1 67 2.9 N 37 57 20 31 1005.4 1005.7 0.0
01/03:30am 12.9 3.8 6.9 67 2.9 N 44 57 24 31 1005.4 1005.7 0.0
01/03:00am 13.3 3.4 6.6 64 3.3 N 48 78 26 42 1005.2 1005.5 0.0
01/02:30am 13.7 5.1 6.3 61 3.6 N 41 65 22 35 1005.8 1006.0 0.0
01/02:00am 14.4 4.7 6.0 57 4.1 NNW 46 69 25 37 1006.5 1006.7 0.0
01/01:30am 14.2 5.1 6.1 58 3.9 NNW 43 72 23 39 1006.9 1007.2 0.0
01/01:00am 14.1 5.4 6.2 59 3.8 N 41 69 22 37 1007.2 1007.5 0.0
01/12:43am 13.9 5.3 6.3 60 3.7 N 41 65 22 35 1007.5 1007.8 0.0
01/12:30am 12.8 4.9 7.7 71 2.5 N 39 52 21 28 1007.5 1007.8 0.0
01/12:25am 12.8 4.5 7.7 71 2.5 N 41 59 22 32 1007.5 1007.8 0.0
01/12:00am 13.2 3.1 7.2 67 3.0 N 50 59 27 32 1007.3 1007.6 0.0
 
Date/Time
EST
Temp
°C
App
Temp
°C
Dew
Point
Rel
Hum
%
Delta-T
°C
Wind Press
QNH
hPa
Press
MSL
hPa
Rain
since 9 am
mm
Dir
 
Spd
km/h
Gust
km/h
Spd
kts
Gust
kts
31/11:38pm 13.6 4.1 6.5 62 3.5 N 46 67 25 36 1007.6 1007.9 0.0
31/11:30pm 13.6 3.7 6.5 62 3.5 N 48 61 26 33 1007.8 1008.1 0.0
31/11:00pm 13.6 6.1 6.2 61 3.6 N 35 46 19 25 1008.3 1008.6 0.0
31/10:30pm 15.0 6.5 5.0 51 4.8 N 39 56 21 30 1008.4 1008.7 0.0
31/10:00pm 14.9 6.0 5.1 52 4.7 N 41 56 22 30 1008.7 1009.0 0.0
31/09:30pm 14.7 5.4 5.8 55 4.3 N 44 65 24 35 1009.0 1009.3 0.0
31/09:21pm 14.6 5.3 5.9 56 4.2 N 44 65 24 35 1009.0 1009.3 0.0
31/09:00pm 14.1 5.8 6.2 59 3.8 N 39 52 21 28 1009.1 1009.4 0.0
31/08:30pm 14.0 6.1 6.4 60 3.7 N 37 52 20 28 1009.5 1009.8 0.0
31/08:00pm 13.8 7.1 7.3 65 3.2 N 32 46 17 25 1009.8 1010.1 0.0
31/07:30pm 13.9 7.2 7.4 65 3.2 N 32 44 17 24 1009.9 1010.2 0.0
31/07:00pm 14.2 8.3 7.7 65 3.3 N 28 41 15 22 1009.9 1010.2 0.0
31/06:30pm 14.2 8.5 8.2 67 3.0 N 28 39 15 21 1010.3 1010.6 0.0
31/06:00pm 13.8 7.7 8.4 70 2.7 N 30 39 16 21 1010.3 1010.6 0.0
31/05:30pm 14.2 8.5 8.4 68 2.9 N 28 37 15 20 1010.4 1010.7 0.0
31/05:00pm 14.2 8.5 8.4 68 3.0 N 28 39 15 21 1010.5 1010.8 0.0
31/04:30pm 14.2 10.1 8.6 69 2.9 N 20 32 11 17 1010.9 1011.2 0.0
31/04:00pm 14.6 10.7 8.8 68 3.0 N 19 28 10 15 1011.1 1011.4 0.0
31/03:30pm 14.1 10.6 8.9 71 2.7 N 17 22 9 12 1011.3 1011.6 0.0
31/03:00pm 13.8 10.3 8.8 72 2.6 N 17 30 9 16 1011.8 1012.1 0.0
31/02:30pm 13.9 10.3 8.5 70 2.7 N 17 28 9 15 1012.0 1012.3 0.0
31/02:00pm 14.3 9.8 8.5 68 3.0 N 22 30 12 16 1012.2 1012.5 0.0
31/01:30pm 14.6 10.6 8.1 65 3.3 N 19 24 10 13 1012.4 1012.7 0.0
31/01:00pm 13.8 9.9 7.3 65 3.2 N 17 24 9 13 1012.7 1013.0 0.0
31/12:30pm 14.9 12.1 8.6 66 3.2 N 13 22 7 12 1013.1 1013.4 0.0
31/12:00pm 15.3 11.9 7.6 60 3.9 N 15 26 8 14 1013.7 1014.1 0.0
31/11:30am 15.0 12.2 7.1 59 3.9 N 11 19 6 10 1014.0 1014.4 0.0
31/11:00am 13.6 9.1 6.0 60 3.7 N 19 22 10 12 1014.2 1014.6 0.0
31/10:30am 14.6 10.1 5.9 56 4.2 N 19 32 10 17 1014.8 1015.1 0.0
31/10:00am 13.2 9.0 5.9 61 3.5 NNE 17 26 9 14 1015.2 1015.5 0.0
31/09:30am 12.3 7.5 5.5 63 3.2 N 20 32 11 17 1015.4 1015.7 0.0
31/09:00am 11.9 7.1 4.9 62 3.2 N 19 28 10 15 1015.6 1015.9 0.2
31/08:30am 11.1 5.8 5.0 66 2.8 N 22 30 12 16 1015.9 1016.2 0.2
31/08:00am 10.3 6.9 4.2 66 2.7 N 11 19 6 10 1016.2 1016.5 0.2
31/07:30am 9.8 4.0 4.2 68 2.5 N 24 39 13 21 1015.9 1016.2 0.2
31/07:00am 9.9 5.0 4.3 68 2.5 N 19 30 10 16 1015.8 1016.1 0.2
31/06:30am 9.8 4.3 3.8 66 2.7 N 22 37 12 20 1015.8 1016.1 0.2
31/06:00am 9.6 5.5 4.4 70 2.3 N 15 28 8 15 1016.1 1016.4 0.2
31/05:30am 9.7 3.4 3.9 67 2.6 N 26 37 14 20 1016.1 1016.4 0.2
31/05:00am 9.4 3.6 4.6 72 2.2 N 24 37 13 20 1016.1 1016.4 0.2
31/04:30am 9.4 4.4 4.4 71 2.2 N 20 35 11 19 1016.5 1016.8 0.2
31/04:00am 9.3 4.5 4.9 74 2.0 N 19 35 10 19 1016.6 1016.9 0.2
31/03:30am 9.5 4.5 4.7 72 2.2 N 20 43 11 23 1016.6 1016.9 0.2
31/03:00am 9.5 2.3 4.9 73 2.1 N 32 46 17 25 1017.1 1017.5 0.2
31/02:30am 9.6 2.2 5.0 73 2.1 N 33 52 18 28 1017.5 1017.9 0.2
31/02:28am 9.7 2.3 5.1 73 2.1 N 33 52 18 28 1017.6 1018.0 0.2
31/02:00am 9.8 1.6 4.8 71 2.3 N 37 52 20 28 1017.8 1018.2 0.2
31/01:33am 9.8 2.2 5.6 75 1.9 N 35 56 19 30 1018.2 1018.6 0.2
31/01:30am 9.4 1.9 6.1 80 1.5 N 35 54 19 29 1018.1 1018.5 0.2
31/01:27am 9.5 2.3 6.0 79 1.6 N 33 54 18 29 1018.3 1018.7 0.2
31/01:00am 9.6 0.8 7.4 86 1.1 N 43 52 23 28 1018.7 1019.1 0.2
31/12:30am 9.7 1.7 7.6 87 1.0 N 39 48 21 26 1019.1 1019.4 0.2
31/12:00am 9.7 3.2 8.0 89 0.8 N 32 41 17 22 1019.9 1020.2 0.2
 
Date/Time
EST
Temp
°C
App
Temp
°C
Dew
Point
Rel
Hum
%
Delta-T
°C
Wind Press
QNH
hPa
Press
MSL
hPa
Rain
since 9 am
mm
Dir
 
Spd
km/h
Gust
km/h
Spd
kts
Gust
kts
30/11:30pm 9.7 2.2 8.1 90 0.8 N 37 48 20 26 1020.3 1020.6 0.2
30/11:00pm 9.9 2.1 8.3 90 0.8 N 39 46 21 25 1020.6 1021.0 0.2
30/10:30pm 9.9 2.9 8.5 91 0.7 N 35 50 19 27 1021.4 1021.8 0.2
30/10:00pm 10.0 3.4 7.9 87 1.0 N 32 50 17 27 1021.8 1022.2 0.2
30/09:32pm 10.0 3.3 8.3 89 0.8 N 33 54 18 29 1022.2 1022.6 0.2
30/09:30pm 9.9 2.8 8.0 88 0.9 N 35 54 19 29 1022.2 1022.6 0.2
30/09:00pm 10.1 3.2 8.7 91 0.7 N 35 44 19 24 1022.3 1022.7 0.2
30/08:30pm 10.2 2.5 8.6 90 0.8 N 39 46 21 25 1022.4 1022.8 0.2
30/08:00pm 10.3 1.8 8.7 90 0.8 N 43 54 23 29 1022.5 1022.9 0.2
30/07:30pm 10.3 1.2 8.6 89 0.8 N 46 59 25 32 1022.4 1022.8 0.2
30/07:00pm 10.2 2.1 8.5 89 0.8 N 41 56 22 30 1022.7 1023.1 0.2
30/06:30pm 10.2 1.6 8.0 86 1.1 N 43 57 23 31 1022.9 1023.3 0.2
30/06:00pm 10.2 2.3 7.8 85 1.2 N 39 54 21 29 1023.2 1023.5 0.2
30/05:30pm 10.2 3.1 8.1 87 1.0 NNE 35 48 19 26 1023.5 1023.8 0.2
30/05:00pm 10.4 3.6 7.6 83 1.4 NNE 33 48 18 26 1023.9 1024.2 0.2
30/04:30pm 10.7 3.9 7.8 82 1.4 N 33 48 18 26 1023.9 1024.2 0.2
30/04:00pm 10.9 4.4 8.1 83 1.4 N 32 46 17 25 1024.0 1024.3 0.2
30/03:38pm 10.7 4.6 8.1 84 1.3 N 30 50 16 27 1024.2 1024.6 0.2
30/03:30pm 10.8 4.7 8.2 84 1.3 NNE 30 44 16 24 1024.3 1024.7 0.2
30/03:00pm 11.1 4.4 8.1 82 1.5 N 33 43 18 23 1024.6 1025.0 0.2
30/02:30pm 11.6 4.6 8.5 81 1.6 NNE 35 50 19 27 1024.7 1025.1 0.2
30/02:00pm 11.7 4.8 8.9 83 1.4 NNE 35 52 19 28 1024.9 1025.3 0.2
30/01:30pm 11.9 4.6 8.6 80 1.7 NNE 37 50 20 27 1025.1 1025.5 0.2
30/01:00pm 11.9 4.4 9.3 84 1.3 NNE 39 52 21 28 1025.4 1025.8 0.2
30/12:30pm 11.7 4.2 9.4 86 1.2 NNE 39 52 21 28 1025.8 1026.2 0.2

Other Formats:

Comma delimited format used in spreadsheet applications
http://www.bom.gov.au/fwo/IDT60801/IDT60801.95986.axf

JavaScript Object Notation format (JSON) in row-major order
http://www.bom.gov.au/fwo/IDT60801/IDT60801.95986.json